createdAt,value
2018-09-17T00:02:03.692Z,99638.95
2018-09-17T00:04:34.124Z,99644.55
2018-09-17T00:07:04.620Z,99640.37
2018-09-17T00:09:35.198Z,99640.62
2018-09-17T00:12:06.048Z,99647.08
2018-09-17T00:14:36.980Z,99642.25
2018-09-17T00:17:07.569Z,99634.88
2018-09-17T00:19:38.217Z,99639.55
2018-09-17T00:22:08.471Z,99641.84
2018-09-17T00:24:38.716Z,99634.72
2018-09-17T00:27:10.132Z,99636.64
2018-09-17T00:29:40.619Z,99629.69
2018-09-17T00:32:10.848Z,99629.50
2018-09-17T00:34:41.374Z,99625.23
2018-09-17T00:37:11.999Z,99621.52
2018-09-17T00:39:42.622Z,99620.68
2018-09-17T00:42:13.876Z,99618.99
2018-09-17T00:44:44.741Z,99620.52
2018-09-17T00:47:15.917Z,99617.69
2018-09-17T00:49:46.830Z,99619.34
2018-09-17T00:52:17.922Z,99629.45
2018-09-17T00:54:48.688Z,99633.11
2018-09-17T00:57:19.832Z,99630.27
2018-09-17T00:59:50.621Z,99626.12
2018-09-17T01:02:20.847Z,99630.38
2018-09-17T01:04:51.118Z,99631.35
2018-09-17T01:07:21.677Z,99547.55
2018-09-17T01:09:52.205Z,99641.13
2018-09-17T01:12:23.052Z,99637.70
2018-09-17T01:14:53.569Z,99647.21
2018-09-17T01:17:24.128Z,99644.44
2018-09-17T01:19:54.924Z,99641.41
2018-09-17T01:22:25.749Z,99651.20
2018-09-17T01:24:56.035Z,99650.24
2018-09-17T01:27:26.828Z,99646.83
2018-09-17T01:29:57.499Z,99649.18
2018-09-17T01:32:28.472Z,99650.11
2018-09-17T01:34:59.341Z,99642.42
2018-09-17T01:37:30.116Z,99644.80
2018-09-17T01:40:00.744Z,99641.47
2018-09-17T01:42:32.265Z,99642.34
2018-09-17T01:45:02.947Z,99642.25
2018-09-17T01:47:33.529Z,99646.81
2018-09-17T01:50:05.864Z,99642.83
2018-09-17T01:52:36.112Z,99644.50
2018-09-17T01:55:06.548Z,99611.69
2018-09-17T01:57:37.074Z,99648.53
2018-09-17T02:00:07.370Z,99652.14
2018-09-17T02:02:37.859Z,99645.96
2018-09-17T02:05:08.292Z,99559.36
2018-09-17T02:07:38.796Z,99650.45
2018-09-17T02:10:09.521Z,99649.86
2018-09-17T02:12:40.189Z,99651.36
2018-09-17T02:15:10.470Z,99658.87
2018-09-17T02:17:41.104Z,99662.02
2018-09-17T02:20:11.950Z,99503.82
2018-09-17T02:22:42.180Z,99665.14
2018-09-17T02:25:12.689Z,99661.39
2018-09-17T02:27:42.964Z,99662.47
2018-09-17T02:30:13.507Z,99655.63
2018-09-17T02:32:44.035Z,99658.69
2018-09-17T02:35:14.830Z,99668.56
2018-09-17T02:37:45.399Z,99666.56
2018-09-17T02:40:17.367Z,99668.65
2018-09-17T02:42:49.817Z,99675.03
2018-09-17T02:45:21.192Z,99674.42
2018-09-17T02:47:51.783Z,99667.61
2018-09-17T02:50:22.338Z,99668.18
2018-09-17T02:52:52.867Z,99668.18
2018-09-17T02:55:23.690Z,99666.09
2018-09-17T02:57:54.314Z,99668.75
2018-09-17T03:00:25.050Z,99666.85
2018-09-17T03:02:55.767Z,99669.52
2018-09-17T03:05:26.244Z,99664.19
2018-09-17T03:07:56.508Z,99656.14
2018-09-17T03:10:27.185Z,99663.63
2018-09-17T03:12:58.008Z,99662.61
2018-09-17T03:15:39.392Z,99656.80
2018-09-17T03:18:10.098Z,99668.77
2018-09-17T03:20:40.700Z,99674.05
2018-09-17T03:23:11.480Z,99677.00
2018-09-17T03:25:42.038Z,99673.97
2018-09-17T03:28:12.835Z,99673.27
2018-09-17T03:30:43.690Z,99680.48
2018-09-17T03:33:14.451Z,99685.05
2018-09-17T03:35:45.425Z,99683.31
2018-09-17T03:38:33.962Z,99688.45
2018-09-17T03:41:05.141Z,99690.28
2018-09-17T03:43:36.563Z,99688.37
2018-09-17T03:46:07.153Z,99691.15
2018-09-17T03:48:38.707Z,99680.69
2018-09-17T03:51:09.832Z,99698.75
2018-09-17T03:53:40.371Z,99702.91
2018-09-17T03:56:11.089Z,99704.06
2018-09-17T03:58:41.610Z,99707.84
2018-09-17T04:01:12.162Z,99713.53
2018-09-17T04:03:44.595Z,99705.88
2018-09-17T04:06:15.092Z,99705.97
2018-09-17T04:08:45.588Z,99703.40
2018-09-17T04:11:16.108Z,99518.81
2018-09-17T04:13:46.696Z,99707.20
2018-09-17T04:16:17.481Z,99714.44
2018-09-17T04:18:48.012Z,99709.70
2018-09-17T04:21:18.892Z,99704.46
2018-09-17T04:23:49.142Z,99705.60
2018-09-17T04:26:19.744Z,99711.87
2018-09-17T04:28:50.284Z,99718.11
2018-09-17T04:31:20.971Z,99715.75
2018-09-17T04:33:51.476Z,99716.73
2018-09-17T04:36:22.004Z,99705.78
2018-09-17T04:38:52.580Z,99724.05
2018-09-17T04:41:23.437Z,99730.22
2018-09-17T04:43:53.965Z,99728.20
2018-09-17T04:46:24.501Z,99730.34
2018-09-17T04:48:54.722Z,99733.33
2018-09-17T04:51:25.560Z,99730.93
2018-09-17T04:53:55.810Z,99734.09
2018-09-17T04:56:26.911Z,99743.47
2018-09-17T04:58:57.139Z,99741.13
2018-09-17T05:01:31.320Z,99746.02
2018-09-17T05:04:01.832Z,99744.68
2018-09-17T05:06:32.687Z,99747.22
2018-09-17T05:09:03.131Z,99745.53
2018-09-17T05:11:34.049Z,99741.39
2018-09-17T05:14:05.128Z,99743.20
2018-09-17T05:16:35.703Z,99754.66
2018-09-17T05:19:06.120Z,99752.89
2018-09-17T05:21:36.821Z,99751.39
2018-09-17T05:24:07.303Z,99765.83
2018-09-17T05:26:37.848Z,99768.53
2018-09-17T05:29:08.408Z,99765.06
2018-09-17T05:31:38.971Z,99778.41
2018-09-17T05:34:09.296Z,99780.07
2018-09-17T05:36:39.700Z,99780.16
2018-09-17T05:39:16.878Z,99777.91
2018-09-17T05:41:47.445Z,99776.72
2018-09-17T05:44:18.039Z,99786.34
2018-09-17T05:46:48.576Z,99783.92
2018-09-17T05:49:19.372Z,99783.53
2018-09-17T05:51:50.210Z,99789.03
2018-09-17T05:54:20.596Z,99794.84
2018-09-17T05:56:51.268Z,99791.30
2018-09-17T05:59:22.041Z,99790.06
2018-09-17T06:01:52.656Z,99791.07
2018-09-17T06:04:23.249Z,99792.63
2018-09-17T06:06:53.704Z,99792.67
2018-09-17T06:09:24.427Z,99791.55
2018-09-17T06:11:54.766Z,99800.59
2018-09-17T06:14:25.334Z,99799.93
2018-09-17T06:16:56.151Z,99789.24
2018-09-17T06:19:27.219Z,99810.05
2018-09-17T06:21:57.692Z,99808.92
2018-09-17T06:24:28.355Z,99810.08
2018-09-17T06:26:58.917Z,99813.48
2018-09-17T06:29:29.689Z,99815.83
2018-09-17T06:32:00.204Z,99814.26
2018-09-17T06:34:30.810Z,99816.22
2018-09-17T06:37:01.213Z,99819.87
2018-09-17T06:39:31.447Z,99810.61
2018-09-17T06:42:02.061Z,99810.22
2018-09-17T06:44:32.332Z,99816.82
2018-09-17T06:47:02.891Z,99811.92
2018-09-17T06:49:33.532Z,99820.56
2018-09-17T06:52:04.030Z,99827.16
2018-09-17T06:54:34.562Z,99832.68
2018-09-17T06:57:05.350Z,99833.59
2018-09-17T06:59:35.897Z,99836.23
2018-09-17T07:02:07.203Z,99849.00
2018-09-17T07:04:39.301Z,99845.22
2018-09-17T07:07:09.920Z,99851.80
2018-09-17T07:09:40.648Z,99851.07
2018-09-17T07:12:11.306Z,99851.17
2018-09-17T07:14:41.895Z,99847.80
2018-09-17T07:17:12.398Z,99846.02
2018-09-17T07:19:42.741Z,99848.95
2018-09-17T07:22:13.303Z,99848.77
2018-09-17T07:24:43.840Z,99854.05
2018-09-17T07:27:14.688Z,99859.70
2018-09-17T07:29:45.442Z,99855.60
2018-09-17T07:32:15.729Z,99861.11
2018-09-17T07:34:46.037Z,99856.77
2018-09-17T07:37:16.603Z,99854.30
2018-09-17T07:39:47.481Z,99853.56
2018-09-17T07:42:17.846Z,99854.00
2018-09-17T07:44:48.671Z,99857.41
2018-09-17T07:47:19.632Z,99762.52
2018-09-17T07:49:50.148Z,99849.02
2018-09-17T07:52:20.881Z,99851.69
2018-09-17T07:54:51.399Z,99846.15
2018-09-17T07:57:22.115Z,99851.55
2018-09-17T07:59:52.640Z,99855.26
2018-09-17T08:02:23.431Z,99860.08
2018-09-17T08:04:53.667Z,99857.38
2018-09-17T08:07:23.927Z,99853.14
2018-09-17T08:09:54.547Z,99859.57
2018-09-17T08:12:25.064Z,99857.26
2018-09-17T08:14:55.636Z,99864.27
2018-09-17T08:17:25.856Z,99858.73
2018-09-17T08:19:56.388Z,99848.91
2018-09-17T08:22:27.156Z,99852.59
2018-09-17T08:24:57.764Z,99848.67
2018-09-17T08:27:28.592Z,99845.72
2018-09-17T08:29:59.740Z,99846.34
2018-09-17T08:32:37.004Z,99851.05
2018-09-17T08:35:14.256Z,99846.91
2018-09-17T08:37:44.848Z,99845.86
2018-09-17T08:40:15.136Z,99846.22
2018-09-17T08:42:45.671Z,99840.32
2018-09-17T08:45:16.177Z,99832.77
2018-09-17T08:47:46.972Z,99833.14
2018-09-17T08:50:17.341Z,99831.04
2018-09-17T08:52:48.051Z,99826.25
2018-09-17T08:55:24.009Z,99832.34
2018-09-17T08:58:01.368Z,99830.92
2018-09-17T09:00:36.791Z,99819.17
2018-09-17T09:03:12.604Z,99822.85
2018-09-17T09:05:48.129Z,99825.09
2018-09-17T09:08:18.752Z,99824.36
2018-09-17T09:10:53.497Z,99826.42
2018-09-17T09:13:29.308Z,99819.84
2018-09-17T09:15:59.994Z,99815.81
2018-09-17T09:18:30.835Z,99813.81
2018-09-17T09:21:01.632Z,99816.84
2018-09-17T09:23:31.877Z,99815.53
2018-09-17T09:26:02.694Z,99811.57
2018-09-17T09:28:32.911Z,99813.53
2018-09-17T09:31:03.151Z,99824.84
2018-09-17T09:33:34.000Z,99824.80
2018-09-17T09:36:04.526Z,99828.13
2018-09-17T09:38:35.034Z,99823.27
2018-09-17T09:41:05.597Z,99828.28
2018-09-17T09:43:36.241Z,99831.48
2018-09-17T09:46:07.237Z,99811.95
2018-09-17T09:48:37.798Z,99809.64
2018-09-17T09:51:08.156Z,99797.50
2018-09-17T09:53:38.472Z,99808.94
2018-09-17T09:56:09.272Z,99818.59
2018-09-17T09:58:39.604Z,99815.53
2018-09-17T10:01:31.721Z,99808.57
2018-09-17T10:04:07.827Z,99805.09
2018-09-17T10:06:38.617Z,99801.89
2018-09-17T10:11:18.890Z,99797.72
2018-09-17T10:13:54.891Z,99765.92
2018-09-17T10:16:25.110Z,99769.98
2018-09-17T10:19:00.730Z,99756.13
2018-09-17T10:21:31.284Z,99759.73
2018-09-17T10:24:01.774Z,99773.35
2018-09-17T10:26:32.732Z,99766.95
2018-09-17T10:29:03.268Z,99754.13
2018-09-17T10:31:33.792Z,99761.65
2018-09-17T10:34:04.355Z,99758.02
2018-09-17T10:36:35.054Z,99750.23
2018-09-17T10:39:08.087Z,99738.05
2018-09-17T10:41:38.755Z,99747.58
2018-09-17T10:44:09.514Z,99748.95
2018-09-17T10:46:39.960Z,99753.96
2018-09-17T10:49:10.461Z,99742.44
2018-09-17T10:51:40.726Z,99736.83
2018-09-17T10:54:11.529Z,99735.22
2018-09-17T10:56:42.077Z,99729.45
2018-09-17T10:59:12.583Z,99731.63
2018-09-17T11:01:43.431Z,99724.75
2018-09-17T11:04:16.038Z,99721.30
2018-09-17T11:06:46.904Z,99717.73
2018-09-17T11:09:17.430Z,99718.80
2018-09-17T11:11:48.380Z,99715.08
2018-09-17T11:14:18.865Z,99709.73
2018-09-17T11:16:49.233Z,99706.57
2018-09-17T11:19:20.512Z,99709.39
2018-09-17T11:21:51.355Z,99710.80
2018-09-17T11:24:21.591Z,99708.99
2018-09-17T11:26:52.441Z,99708.84
2018-09-17T11:29:22.941Z,99705.08
2018-09-17T11:31:54.610Z,99703.82
2018-09-17T11:34:25.010Z,99706.44
2018-09-17T11:36:55.511Z,99704.72
2018-09-17T11:39:26.325Z,99705.67
2018-09-17T11:41:57.159Z,99697.29
2018-09-17T11:44:28.147Z,99703.30
2018-09-17T11:46:58.883Z,99701.52
2018-09-17T11:49:29.624Z,99694.78
2018-09-17T11:52:00.168Z,99698.31
2018-09-17T11:54:30.408Z,99694.07
2018-09-17T11:57:00.644Z,99688.66
2018-09-17T11:59:31.180Z,99688.14
2018-09-17T12:02:05.252Z,99680.22
2018-09-17T12:04:40.985Z,99652.79
2018-09-17T12:07:17.382Z,99676.51
2018-09-17T12:09:47.966Z,99677.17
2018-09-17T12:12:18.457Z,99681.05
2018-09-17T12:14:49.062Z,99680.34
2018-09-17T12:17:20.199Z,99675.35
2018-09-17T12:19:50.763Z,99677.34
2018-09-17T12:22:21.284Z,99665.42
2018-09-17T12:24:52.269Z,99662.95
2018-09-17T12:27:22.797Z,99661.59
2018-09-17T12:29:53.475Z,99651.87
2018-09-17T12:32:24.008Z,99661.66
2018-09-17T12:34:54.543Z,99659.63
2018-09-17T12:37:25.383Z,99648.91
2018-09-17T12:39:56.204Z,99648.29
2018-09-17T12:42:26.783Z,99643.66
2018-09-17T12:44:57.712Z,99636.95
2018-09-17T12:47:28.398Z,99635.55
2018-09-17T12:49:59.148Z,99631.49
2018-09-17T12:52:29.840Z,99636.32
2018-09-17T12:55:00.617Z,99629.41
2018-09-17T12:57:31.152Z,99508.35
2018-09-17T13:00:01.742Z,99552.42
2018-09-17T13:02:35.717Z,99613.67
2018-09-17T13:05:08.149Z,99605.76
2018-09-17T13:07:38.799Z,99615.39
2018-09-17T13:10:19.973Z,99614.30
2018-09-17T13:12:51.154Z,99553.31
2018-09-17T13:15:21.700Z,99604.80
2018-09-17T13:17:52.541Z,99600.56
2018-09-17T13:20:23.243Z,99612.00
2018-09-17T13:22:53.690Z,99609.59
2018-09-17T13:25:24.521Z,99620.37
2018-09-17T13:27:55.396Z,99616.78
2018-09-17T13:30:26.134Z,99616.46
2018-09-17T13:32:57.956Z,99614.06
2018-09-17T13:35:28.495Z,99606.39
2018-09-17T13:37:59.230Z,99611.80
2018-09-17T13:40:29.793Z,99611.22
2018-09-17T13:43:00.532Z,99606.87
2018-09-17T13:45:32.801Z,99600.59
2018-09-17T13:48:03.496Z,99603.56
2018-09-17T13:50:34.096Z,99590.85
2018-09-17T13:53:04.582Z,99590.94
2018-09-17T13:55:35.308Z,99584.52
2018-09-17T13:58:05.989Z,99571.31
2018-09-17T14:00:36.525Z,99579.05
2018-09-17T14:03:07.611Z,99577.59
2018-09-17T14:05:38.242Z,99575.38
2018-09-17T14:08:08.802Z,99570.02
2018-09-17T14:10:39.822Z,99569.02
2018-09-17T14:13:10.557Z,99565.97
2018-09-17T14:15:45.208Z,99563.73
2018-09-17T14:18:15.749Z,99559.79
2018-09-17T14:20:46.644Z,99564.12
2018-09-17T14:23:17.605Z,99564.06
2018-09-17T14:25:48.264Z,99562.25
2018-09-17T14:28:19.048Z,99566.37
2018-09-17T14:30:49.951Z,99557.22
2018-09-17T14:33:25.718Z,99557.78
2018-09-17T14:35:56.219Z,99553.78
2018-09-17T14:38:26.788Z,99552.42
2018-09-17T14:40:58.353Z,99546.15
2018-09-17T14:43:29.677Z,99545.95
2018-09-17T14:46:00.249Z,99545.91
2018-09-17T14:48:30.594Z,99547.44
2018-09-17T14:51:01.103Z,99542.14
2018-09-17T14:53:31.394Z,99543.59
2018-09-17T14:56:02.084Z,99545.66
2018-09-17T14:58:32.595Z,99538.76
2018-09-17T15:01:03.384Z,99534.67
2018-09-17T15:03:41.962Z,99525.88
2018-09-17T15:06:13.284Z,99528.52
2018-09-17T15:08:43.988Z,99533.25
2018-09-17T15:11:14.732Z,99530.69
2018-09-17T15:13:45.835Z,99524.58
2018-09-17T15:16:16.885Z,99521.44
2018-09-17T15:18:48.498Z,99518.66
2018-09-17T15:21:19.400Z,99519.41
2018-09-17T15:23:50.044Z,99516.44
2018-09-17T15:26:20.928Z,99513.47
2018-09-17T15:28:51.527Z,99515.84
2018-09-17T15:31:22.457Z,99515.33
2018-09-17T15:33:53.051Z,99513.78
2018-09-17T15:36:23.721Z,99514.98
2018-09-17T15:38:54.827Z,99513.51
2018-09-17T15:41:26.063Z,99503.83
2018-09-17T15:43:56.673Z,99509.94
2018-09-17T15:46:27.383Z,99514.37
2018-09-17T15:48:58.203Z,99516.41
2018-09-17T15:51:29.024Z,99519.08
2018-09-17T15:53:59.569Z,99514.66
2018-09-17T15:56:30.101Z,99519.77
2018-09-17T15:59:00.644Z,99515.37
2018-09-17T16:01:31.199Z,99520.45
2018-09-17T16:04:01.735Z,99515.02
2018-09-17T16:06:32.208Z,99512.31
2018-09-17T16:09:02.992Z,99511.81
2018-09-17T16:11:33.239Z,99517.05
2018-09-17T16:14:04.581Z,99516.55
2018-09-17T16:16:35.266Z,99503.34
2018-09-17T16:19:06.083Z,99503.19
2018-09-17T16:21:36.971Z,99502.34
2018-09-17T16:24:07.761Z,99499.95
2018-09-17T16:26:38.300Z,99506.34
2018-09-17T16:29:10.355Z,99499.58
2018-09-17T16:31:40.923Z,99498.77
2018-09-17T16:34:11.515Z,99502.28
2018-09-17T16:36:42.432Z,99504.46
2018-09-17T16:39:13.085Z,99494.28
2018-09-17T16:41:44.082Z,99493.25
2018-09-17T16:44:15.308Z,99494.21
2018-09-17T16:46:46.543Z,99499.79
2018-09-17T16:49:17.597Z,99490.28
2018-09-17T16:51:48.083Z,99492.48
2018-09-17T16:54:18.610Z,99499.17
2018-09-17T16:56:49.254Z,99499.70
2018-09-17T16:59:19.903Z,99497.98
2018-09-17T17:01:50.916Z,99500.77
2018-09-17T17:04:21.447Z,99495.86
2018-09-17T17:06:52.040Z,99503.95
2018-09-17T17:09:22.800Z,99504.55
2018-09-17T17:11:53.761Z,99503.52
2018-09-17T17:14:24.864Z,99499.08
2018-09-17T17:16:55.670Z,99499.54
2018-09-17T17:19:26.313Z,99501.96
2018-09-17T17:21:57.163Z,99508.16
2018-09-17T17:24:27.396Z,99512.08
2018-09-17T17:26:59.806Z,99516.62
2018-09-17T17:29:31.012Z,99520.11
2018-09-17T17:32:02.091Z,99515.09
2018-09-17T17:34:34.058Z,99517.03
2018-09-17T17:37:05.860Z,99518.78
2018-09-17T17:39:36.921Z,99517.02
2018-09-17T17:42:08.400Z,99520.59
2018-09-17T17:44:40.020Z,99519.19
2018-09-17T17:47:11.676Z,99523.75
2018-09-17T17:49:42.975Z,99523.26
2018-09-17T17:52:14.956Z,99518.75
2018-09-17T17:54:47.337Z,99522.58
2018-09-17T17:57:17.965Z,99529.30
2018-09-17T18:00:18.970Z,99531.00
2018-09-17T18:02:51.868Z,99526.48
2018-09-17T18:05:25.486Z,99528.17
2018-09-17T18:07:57.296Z,99526.16
2018-09-17T18:10:34.485Z,99526.64
2018-09-17T18:13:07.158Z,99530.56
2018-09-17T18:15:38.715Z,99524.33
2018-09-17T18:18:10.423Z,99530.30
2018-09-17T18:20:42.163Z,99531.92
2018-09-17T18:23:13.363Z,99523.43
2018-09-17T18:25:49.125Z,99532.45
2018-09-17T18:28:19.664Z,99528.67
2018-09-17T18:30:50.297Z,99526.19
2018-09-17T18:33:20.907Z,99532.86
2018-09-17T18:35:51.860Z,99533.34
2018-09-17T18:38:22.092Z,99528.97
2018-09-17T18:40:52.613Z,99537.25
2018-09-17T18:43:23.157Z,99532.08
2018-09-17T18:45:53.858Z,99530.69
2018-09-17T18:48:24.557Z,99530.72
2018-09-17T18:50:55.186Z,99525.06
2018-09-17T18:53:25.904Z,99530.17
2018-09-17T18:55:56.467Z,99520.53
2018-09-17T18:58:26.741Z,99527.22
2018-09-17T19:00:57.228Z,99523.56
2018-09-17T19:03:28.275Z,99522.45
2018-09-17T19:05:58.908Z,99529.59
2018-09-17T19:08:29.639Z,99524.34
2018-09-17T19:10:59.922Z,99515.29
2018-09-17T19:13:30.473Z,99521.26
2018-09-17T19:16:01.130Z,99518.67
2018-09-17T19:18:31.654Z,99525.27
2018-09-17T19:21:04.230Z,99518.19
2018-09-17T19:23:42.195Z,99526.36
2018-09-17T19:26:13.143Z,99527.78
2018-09-17T19:28:49.179Z,99522.98
2018-09-17T19:31:19.756Z,99529.59
2018-09-17T19:33:50.382Z,99533.97
2018-09-17T19:36:21.268Z,99531.95
2018-09-17T19:38:56.904Z,99526.65
2018-09-17T19:41:28.045Z,99523.80
2018-09-17T19:43:59.120Z,99517.39
2018-09-17T19:46:30.234Z,99521.53
2018-09-17T19:49:00.932Z,99529.34
2018-09-17T19:51:36.574Z,99525.00
2018-09-17T19:54:07.563Z,99529.56
2018-09-17T19:56:38.705Z,99525.27
2018-09-17T19:59:15.715Z,99528.56
2018-09-17T20:01:46.265Z,99526.27
2018-09-17T20:04:22.124Z,99526.89
2018-09-17T20:06:54.810Z,99527.84
2018-09-17T20:09:25.378Z,99524.89
2018-09-17T20:11:57.071Z,99524.80
2018-09-17T20:14:28.403Z,99528.67
2018-09-17T20:16:59.036Z,99452.95
2018-09-17T20:19:29.619Z,99517.60
2018-09-17T20:22:00.217Z,99516.22
2018-09-17T20:24:31.258Z,99497.99
2018-09-17T20:27:02.206Z,99525.59
2018-09-17T20:29:32.850Z,99521.77
2018-09-17T20:32:03.497Z,99511.47
2018-09-17T20:34:34.079Z,99521.98
2018-09-17T20:37:05.902Z,99521.83
2018-09-17T20:39:36.670Z,99513.34
2018-09-17T20:42:07.032Z,99512.51
2018-09-17T20:44:37.642Z,99516.17
2018-09-17T20:47:08.275Z,99516.55
2018-09-17T20:49:39.012Z,99508.67
2018-09-17T20:52:10.058Z,99508.85
2018-09-17T20:54:40.472Z,99506.63
2018-09-17T20:57:11.158Z,99508.53
2018-09-17T20:59:41.962Z,99504.57
2018-09-17T21:02:12.548Z,99501.25
2018-09-17T21:04:43.802Z,99500.00
2018-09-17T21:07:14.660Z,99499.81
2018-09-17T21:09:45.577Z,99499.08
2018-09-17T21:12:16.485Z,99497.50
2018-09-17T21:14:47.069Z,99498.45
2018-09-17T21:17:17.828Z,99497.41
2018-09-17T21:19:48.794Z,99489.44
2018-09-17T21:22:20.035Z,99490.48
2018-09-17T21:24:50.738Z,99488.58
2018-09-17T21:27:21.431Z,99493.17
2018-09-17T21:29:52.078Z,99485.47
2018-09-17T21:32:22.388Z,99492.48
2018-09-17T21:34:53.052Z,99482.64
2018-09-17T21:37:24.011Z,99485.43
2018-09-17T21:39:55.213Z,99484.39
2018-09-17T21:42:25.829Z,99490.18
2018-09-17T21:44:56.437Z,99487.34
2018-09-17T21:47:27.187Z,99482.83
2018-09-17T21:49:58.202Z,99481.50
2018-09-17T21:52:28.814Z,99482.02
2018-09-17T21:54:59.744Z,99484.28
2018-09-17T21:57:31.336Z,99491.45
2018-09-17T22:00:02.445Z,99490.20
2018-09-17T22:02:36.297Z,99484.63
2018-09-17T22:05:13.798Z,99478.53
2018-09-17T22:07:44.629Z,99478.81
2018-09-17T22:10:15.180Z,99485.44
2018-09-17T22:12:45.760Z,99482.36
2018-09-17T22:15:16.521Z,99481.09
2018-09-17T22:17:47.240Z,99476.75
2018-09-17T22:20:18.330Z,99473.13
2018-09-17T22:22:48.959Z,99476.43
2018-09-17T22:25:19.591Z,99478.98
2018-09-17T22:27:50.186Z,99481.88
2018-09-17T22:30:21.071Z,99484.33
2018-09-17T22:32:51.641Z,99481.73
2018-09-17T22:35:22.873Z,99478.45
2018-09-17T22:37:53.497Z,99483.00
2018-09-17T22:40:24.186Z,99476.66
2018-09-17T22:42:54.836Z,99476.97
2018-09-17T22:45:25.552Z,99469.30
2018-09-17T22:47:56.090Z,99472.38
2018-09-17T22:50:26.649Z,99462.20
2018-09-17T22:52:57.257Z,99467.91
2018-09-17T22:55:27.795Z,99466.28
2018-09-17T22:57:58.513Z,99470.01
2018-09-17T23:00:30.333Z,99465.31
2018-09-17T23:03:01.579Z,99460.63
2018-09-17T23:05:31.991Z,99459.92
2018-09-17T23:08:09.284Z,99464.23
2018-09-17T23:10:40.972Z,99460.09
2018-09-17T23:13:13.298Z,99465.03
2018-09-17T23:15:44.472Z,99456.28
2018-09-17T23:18:15.068Z,99456.16
2018-09-17T23:20:45.724Z,99448.34
2018-09-17T23:23:16.527Z,99450.50
2018-09-17T23:25:47.247Z,99450.72
2018-09-17T23:28:18.420Z,99449.94
2018-09-17T23:30:48.990Z,99450.23
2018-09-17T23:33:19.697Z,99454.83
2018-09-17T23:35:50.515Z,99444.81
2018-09-17T23:38:22.195Z,99445.25
2018-09-17T23:40:52.795Z,99448.77
2018-09-17T23:43:23.752Z,99450.16
2018-09-17T23:45:54.565Z,99448.30
2018-09-17T23:48:25.139Z,99448.48
2018-09-17T23:50:55.928Z,99449.95
2018-09-17T23:53:26.695Z,99446.14
2018-09-17T23:55:57.280Z,99452.37
2018-09-17T23:58:28.121Z,99442.48
